createdAt,value
2022-10-06T00:01:21.525Z,2.45
2022-10-06T00:03:48.103Z,2.67
2022-10-06T00:06:18.639Z,2.50
2022-10-06T00:08:58.255Z,3.22
2022-10-06T00:11:25.250Z,3.38
2022-10-06T00:14:31.137Z,2.95
2022-10-06T00:16:57.712Z,2.63
2022-10-06T00:19:29.383Z,2.63
2022-10-06T00:21:56.016Z,2.58
2022-10-06T00:24:32.309Z,2.10
2022-10-06T00:27:08.331Z,2.70
2022-10-06T00:29:42.469Z,2.97
2022-10-06T00:32:11.997Z,2.80
2022-10-06T00:34:38.586Z,2.67
2022-10-06T00:37:07.665Z,2.50
2022-10-06T00:39:34.152Z,2.05
2022-10-06T00:42:01.011Z,2.38
2022-10-06T00:44:33.177Z,2.67
2022-10-06T00:46:59.798Z,2.97
2022-10-06T00:49:31.027Z,3.08
2022-10-06T00:52:11.360Z,2.65
2022-10-06T00:54:39.447Z,2.72
2022-10-06T00:57:06.826Z,2.83
2022-10-06T00:59:34.482Z,2.70
2022-10-06T01:02:04.304Z,2.92
2022-10-06T01:04:33.794Z,2.80
2022-10-06T01:07:04.531Z,2.38
2022-10-06T01:09:48.640Z,2.67
2022-10-06T01:12:16.783Z,2.78
2022-10-06T01:14:43.579Z,2.40
2022-10-06T01:20:11.999Z,2.70
2022-10-06T01:22:55.736Z,2.75
2022-10-06T01:25:50.318Z,3.08
2022-10-06T01:28:19.046Z,2.97
2022-10-06T01:31:12.641Z,2.33
2022-10-06T01:33:47.587Z,2.40
2022-10-06T01:36:21.684Z,2.60
2022-10-06T01:38:48.243Z,2.90
2022-10-06T01:41:14.883Z,3.10
2022-10-06T01:43:41.375Z,3.08
2022-10-06T01:46:08.007Z,2.40
2022-10-06T01:51:02.407Z,2.58
2022-10-06T01:53:32.106Z,2.85
2022-10-06T01:55:59.542Z,2.88
2022-10-06T01:58:26.546Z,3.00
2022-10-06T02:00:54.208Z,2.75
2022-10-06T02:03:20.741Z,2.60
2022-10-06T02:05:47.258Z,2.60
2022-10-06T02:08:13.757Z,2.33
2022-10-06T02:10:40.369Z,2.75
2022-10-06T02:13:06.925Z,3.10
2022-10-06T02:15:33.507Z,2.97
2022-10-06T02:18:00.062Z,2.78
2022-10-06T02:20:26.696Z,3.22
2022-10-06T02:22:53.259Z,3.05
2022-10-06T02:25:19.789Z,2.97
2022-10-06T02:27:47.324Z,2.70
2022-10-06T02:30:16.866Z,3.15
2022-10-06T02:32:44.171Z,3.13
2022-10-06T02:35:12.877Z,2.45
2022-10-06T02:37:41.469Z,2.63
2022-10-06T02:40:09.020Z,2.70
2022-10-06T02:42:37.495Z,3.05
2022-10-06T02:45:08.069Z,2.30
2022-10-06T02:47:36.561Z,2.95
2022-10-06T02:50:06.023Z,2.65
2022-10-06T02:52:35.258Z,2.50
2022-10-06T02:55:09.277Z,2.60
2022-10-06T02:57:47.736Z,2.50
2022-10-06T03:00:15.636Z,3.03
2022-10-06T03:03:27.801Z,2.40
2022-10-06T03:06:06.396Z,2.65
2022-10-06T03:08:33.132Z,2.95
2022-10-06T03:13:28.040Z,2.80
2022-10-06T03:15:57.083Z,2.75
2022-10-06T03:18:23.873Z,3.55
2022-10-06T03:23:27.867Z,2.87
2022-10-06T03:26:08.728Z,2.95
2022-10-06T03:28:35.306Z,2.80
2022-10-06T03:31:03.191Z,3.10
2022-10-06T03:33:30.557Z,3.30
2022-10-06T03:36:15.644Z,3.20
2022-10-06T03:38:43.128Z,3.38
2022-10-06T03:41:13.477Z,3.00
2022-10-06T03:43:42.592Z,3.85
2022-10-06T03:46:20.346Z,3.00
2022-10-06T03:48:48.808Z,3.60
2022-10-06T03:51:29.877Z,3.15
2022-10-06T03:53:59.563Z,3.40
2022-10-06T03:56:35.281Z,3.28
2022-10-06T03:59:04.464Z,3.28
2022-10-06T04:01:39.724Z,3.03
2022-10-06T04:04:06.923Z,3.20
2022-10-06T04:06:36.486Z,3.10
2022-10-06T04:09:05.366Z,3.30
2022-10-06T04:11:34.628Z,3.40
2022-10-06T04:14:03.585Z,3.13
2022-10-06T04:16:32.771Z,2.75
2022-10-06T04:19:01.570Z,2.95
2022-10-06T04:21:30.475Z,2.40
2022-10-06T04:23:58.718Z,2.28
2022-10-06T04:26:31.246Z,1.90
2022-10-06T04:29:08.384Z,1.27
2022-10-06T04:31:37.318Z,1.42
2022-10-06T04:34:09.267Z,1.58
2022-10-06T04:40:43.593Z,2.03
2022-10-06T04:43:10.057Z,1.77
2022-10-06T04:45:36.559Z,1.20
2022-10-06T04:48:03.162Z,1.45
2022-10-06T04:50:29.593Z,1.10
2022-10-06T04:52:56.819Z,1.15
2022-10-06T04:55:24.321Z,1.10
2022-10-06T04:58:19.518Z,1.00
2022-10-06T05:00:50.882Z,1.30
2022-10-06T05:03:17.607Z,1.10
2022-10-06T05:05:49.704Z,1.00
2022-10-06T05:08:20.509Z,0.80
2022-10-06T05:11:32.107Z,0.70
2022-10-06T05:17:25.079Z,0.70
2022-10-06T05:19:54.453Z,0.70
2022-10-06T05:26:12.437Z,0.70
2022-10-06T05:28:57.675Z,0.52
2022-10-06T05:39:04.942Z,0.60
2022-10-06T05:41:33.231Z,1.35
2022-10-06T05:44:00.279Z,1.40
2022-10-06T05:46:29.661Z,1.30
2022-10-06T05:48:58.615Z,0.65
2022-10-06T05:51:30.665Z,0.77
2022-10-06T05:54:01.044Z,0.57
2022-10-06T05:56:30.450Z,0.85
2022-10-06T05:58:58.115Z,0.50
2022-10-06T06:01:30.372Z,0.65
2022-10-06T06:04:00.480Z,0.43
2022-10-06T06:06:52.750Z,1.05
2022-10-06T06:09:21.344Z,0.60
2022-10-06T06:11:54.881Z,0.30
2022-10-06T06:25:25.367Z,0.50
2022-10-06T06:28:03.600Z,1.08
2022-10-06T06:30:58.673Z,0.47
2022-10-06T06:33:44.017Z,0.63
2022-10-06T07:02:39.106Z,0.80
2022-10-06T07:05:09.692Z,0.65
2022-10-06T07:07:43.883Z,0.60
2022-10-06T07:10:18.188Z,0.90
2022-10-06T07:15:56.279Z,0.73
2022-10-06T07:18:47.939Z,0.55
2022-10-06T07:24:47.624Z,0.93
2022-10-06T07:27:18.757Z,1.02
2022-10-06T07:30:08.095Z,0.70
2022-10-06T07:32:34.673Z,0.77
2022-10-06T07:35:27.009Z,0.98
2022-10-06T07:45:52.243Z,1.00
2022-10-06T09:05:01.208Z,1.20
2022-10-06T09:07:49.650Z,1.23
2022-10-06T09:11:21.778Z,1.30
2022-10-06T09:14:32.131Z,1.30
2022-10-06T09:21:11.704Z,1.63
2022-10-06T09:24:31.989Z,1.33
2022-10-06T09:37:38.653Z,1.13
2022-10-06T10:04:08.532Z,1.27
2022-10-06T13:26:36.226Z,1.40
2022-10-06T13:37:00.976Z,1.05
2022-10-06T13:42:24.559Z,1.40
2022-10-06T13:44:58.694Z,1.33
2022-10-06T13:47:29.039Z,0.95
2022-10-06T13:50:10.610Z,1.27
2022-10-06T13:52:40.223Z,1.90
2022-10-06T13:55:33.520Z,1.00
2022-10-06T13:58:06.545Z,1.17
2022-10-06T14:00:51.294Z,1.67
2022-10-06T14:03:24.661Z,1.42
2022-10-06T14:06:04.869Z,1.20
2022-10-06T14:08:31.590Z,1.42
2022-10-06T14:17:35.668Z,1.15
2022-10-06T14:20:25.046Z,0.90
2022-10-06T14:22:51.510Z,1.58
2022-10-06T14:26:17.237Z,1.20
2022-10-06T14:28:55.143Z,1.50
2022-10-06T14:42:17.966Z,0.98
2022-10-06T14:45:25.457Z,1.38
2022-10-06T14:47:51.948Z,1.05
2022-10-06T14:50:19.767Z,0.73
2022-10-06T14:53:11.351Z,1.33
2022-10-06T14:56:24.479Z,1.10
2022-10-06T14:59:13.016Z,0.93
2022-10-06T15:01:44.363Z,0.80
2022-10-06T15:04:18.586Z,0.93
2022-10-06T15:07:05.098Z,1.23
2022-10-06T15:09:32.585Z,0.98
2022-10-06T15:12:02.431Z,0.95
2022-10-06T15:14:32.101Z,0.98
2022-10-06T15:17:02.232Z,1.90
2022-10-06T15:20:37.960Z,1.02
2022-10-06T15:23:07.073Z,1.30
2022-10-06T15:26:36.162Z,1.63
2022-10-06T15:29:23.181Z,1.00
2022-10-06T15:31:55.369Z,1.00
2022-10-06T15:34:25.490Z,0.80
2022-10-06T15:36:54.339Z,1.13
2022-10-06T15:39:23.948Z,2.53
2022-10-06T15:42:00.474Z,1.05
2022-10-06T15:47:48.819Z,1.17
2022-10-06T15:50:19.008Z,1.02
2022-10-06T15:52:45.944Z,1.20
2022-10-06T15:57:38.948Z,1.10
2022-10-06T16:00:06.126Z,0.90
2022-10-06T16:02:36.588Z,1.17
2022-10-06T16:05:03.501Z,1.40
2022-10-06T16:13:52.753Z,1.00
2022-10-06T16:16:19.392Z,2.33
2022-10-06T16:18:46.238Z,1.48
2022-10-06T16:21:12.781Z,1.20
2022-10-06T16:23:45.674Z,1.05
2022-10-06T16:26:12.798Z,1.33
2022-10-06T16:41:06.767Z,1.33
2022-10-06T16:44:27.080Z,1.25
2022-10-06T16:47:36.127Z,1.38
2022-10-06T16:57:27.171Z,1.98
2022-10-06T17:00:26.253Z,1.95
2022-10-06T17:02:59.543Z,1.67
2022-10-06T17:12:07.241Z,1.25
2022-10-06T17:14:53.180Z,1.42
2022-10-06T17:18:15.784Z,2.55
2022-10-06T17:21:15.602Z,2.10
2022-10-06T17:24:28.941Z,2.00
2022-10-06T17:27:18.803Z,1.42
2022-10-06T17:36:57.266Z,1.20
2022-10-06T17:39:35.566Z,1.48
2022-10-06T20:35:41.180Z,2.70
2022-10-06T20:38:09.272Z,3.15
2022-10-06T20:52:12.116Z,2.75
2022-10-06T22:20:05.531Z,3.30
2022-10-06T22:22:32.294Z,2.90
2022-10-06T22:27:26.158Z,2.83
2022-10-06T22:32:19.797Z,3.58
2022-10-06T22:34:46.293Z,3.67
2022-10-06T22:37:12.942Z,3.72
2022-10-06T22:39:39.540Z,4.15
2022-10-06T22:42:06.246Z,3.97
2022-10-06T22:46:59.512Z,4.40
2022-10-06T22:51:52.673Z,2.90
2022-10-06T22:54:19.771Z,3.25
2022-10-06T22:56:46.369Z,3.55
2022-10-06T22:59:13.063Z,3.40
2022-10-06T23:04:06.502Z,3.20
2022-10-06T23:06:33.749Z,3.30
2022-10-06T23:09:00.300Z,3.45
2022-10-06T23:11:27.346Z,4.07
2022-10-06T23:13:54.129Z,3.30
2022-10-06T23:18:48.555Z,2.90
2022-10-06T23:21:21.808Z,3.70
2022-10-06T23:23:51.046Z,3.75
2022-10-06T23:26:19.095Z,3.15
2022-10-06T23:28:47.057Z,3.20
2022-10-06T23:31:13.682Z,2.90
2022-10-06T23:33:40.276Z,3.50
2022-10-06T23:36:11.923Z,3.30
2022-10-06T23:38:39.451Z,3.38
2022-10-06T23:41:06.857Z,4.07
2022-10-06T23:43:33.834Z,3.17
2022-10-06T23:46:01.056Z,3.13
2022-10-06T23:48:27.809Z,3.33
2022-10-06T23:51:02.583Z,2.92
2022-10-06T23:53:30.948Z,3.05
2022-10-06T23:55:58.409Z,3.10
2022-10-06T23:58:25.351Z,3.45
